Date,TemperatureHighF,TemperatureAvgF,TemperatureLowF,DewpointHighF,DewpointAvgF,DewpointLowF,HumidityHigh,HumidityAvg,HumidityLow,PressureMaxIn,PressureMinIn,WindSpeedMaxMPH,WindSpeedAvgMPH,GustSpeedMaxMPH,PrecipitationSumIn
2013-7-1,97,77,62,68,61,57,86,60,32,29.94,29.83,5,1,5,0.00
2013-7-2,85,73,63,64,60,57,86,64,44,30.03,29.94,5,1,6,0.00
2013-7-3,83,70,57,59,53,48,85,55,30,30.06,29.94,6,2,8,0.00
2013-7-4,80,67,56,57,54,52,91,64,42,30.03,29.91,4,1,6,0.00
2013-7-5,82,67,54,57,54,50,94,65,39,29.94,29.83,6,2,9,0.00
2013-7-6,86,69,54,57,52,50,86,58,33,29.88,29.77,7,2,10,0.00
2013-7-7,86,70,58,59,55,50,87,61,35,29.88,29.80,6,1,9,0.00
2013-7-8,82,68,57,61,56,54,91,69,40,30.03,29.85,4,1,6,0.00
2013-7-9,84,70,57,64,58,54,95,69,39,30.03,29.91,5,1,6,0.00
2013-7-10,80,70,60,63,55,46,94,62,42,29.94,29.83,5,2,8,0.00
2013-7-11,76,66,55,54,47,41,72,52,36,29.97,29.83,8,2,11,0.00
2013-7-12,80,65,54,54,49,41,83,58,33,30.00,29.91,6,1,13,0.00
2013-7-13,78,65,52,57,50,46,92,61,38,30.12,30.00,6,1,8,0.00
2013-7-14,82,67,52,57,51,43,94,60,32,30.03,29.94,6,2,8,0.00
2013-7-15,86,70,55,55,50,43,80,52,27,30.00,29.85,8,2,9,0.00
2013-7-16,97,73,56,57,51,43,73,49,22,29.88,29.80,7,1,11,0.00
2013-7-17,84,72,64,61,56,52,76,57,40,30.12,29.80,4,1,5,0.00
2013-7-18,82,68,57,63,58,54,92,70,42,30.15,30.03,6,1,8,0.00
2013-7-19,81,69,58,63,59,57,96,74,51,30.09,29.94,5,1,7,0.00
2013-7-20,81,68,58,63,58,55,96,73,45,29.97,29.88,5,1,6,0.00
2013-7-21,81,68,57,61,57,55,96,70,42,29.88,29.83,6,1,7,0.00
2013-7-22,81,69,58,63,58,55,96,71,45,29.97,29.85,5,1,8,0.00
2013-7-23,86,69,56,63,58,55,94,72,40,30.00,29.91,6,1,6,0.00
2013-7-24,86,70,57,64,58,55,96,71,40,29.97,29.91,5,1,6,0.00
2013-7-25,84,70,56,64,58,55,96,69,37,30.03,29.94,5,1,7,0.00
2013-7-26,84,70,56,59,54,43,94,60,35,30.06,29.97,6,2,9,0.00
2013-7-27,83,68,56,55,50,43,78,53,32,30.06,29.91,6,1,10,0.00
2013-7-28,83,68,54,59,54,48,91,64,32,29.94,29.85,5,1,8,0.00
2013-7-29,80,67,56,61,57,55,94,71,44,29.91,29.88,5,1,6,0.00
2013-7-30,80,68,57,64,57,55,95,70,46,30.06,29.91,5,1,6,0.00
2013-7-31,79,69,58,63,59,55,93,70,51,30.03,29.91,6,1,6,0.00